Time;durP1;ratioP1;P1;durP2;ratioP2;P2;SDS_P1;SDS_P2;PMS_P1;PMS_P2;Temp;Humidity;BMP_temperature;BMP_pressure;BME280_temperature;BME280_humidity;BME280_pressure;Samples;Min_cycle;Max_cycle;Signal;HPM_P1;HPM_P2
2022/12/05 00:01:12;;;;;;;24.50;17.25;;;;;;;;;;4999974;28;20038;-74
2022/12/05 00:03:38;;;;;;;26.70;16.95;;;;;;;;;;4995406;28;20562;-74
2022/12/05 00:06:05;;;;;;;26.02;17.65;;;;;;;;;;5007617;28;20050;-74
2022/12/05 00:08:31;;;;;;;22.45;16.90;;;;;;;;;;5001848;28;20488;-75
2022/12/05 00:10:57;;;;;;;22.48;16.83;;;;;;;;;;5001997;28;20116;-75
2022/12/05 00:13:23;;;;;;;28.05;18.63;;;;;;;;;;5008933;28;20026;-75
2022/12/05 00:15:52;;;;;;;27.55;19.30;;;;;;;;;;4996035;28;20412;-74
2022/12/05 00:18:18;;;;;;;26.92;17.98;;;;;;;;;;5006661;28;20554;-75
2022/12/05 00:20:48;;;;;;;24.35;17.40;;;;;;;;;;5003627;28;20516;-75
2022/12/05 00:23:14;;;;;;;24.65;18.15;;;;;;;;;;4999587;28;20077;-74
2022/12/05 00:25:41;;;;;;;24.77;17.67;;;;;;;;;;5010113;28;20112;-77
2022/12/05 00:28:07;;;;;;;25.73;17.35;;;;;;;;;;5007489;28;20018;-76
2022/12/05 00:30:33;;;;;;;26.85;17.88;;;;;;;;;;5003136;28;20030;-76
2022/12/05 00:32:59;;;;;;;27.15;17.60;;;;;;;;;;5003034;28;20105;-75
2022/12/05 00:35:25;;;;;;;25.27;17.48;;;;;;;;;;5000945;28;20030;-74
2022/12/05 00:37:51;;;;;;;22.77;17.00;;;;;;;;;;5008192;28;20058;-73
2022/12/05 00:40:17;;;;;;;26.65;17.35;;;;;;;;;;4998115;28;20120;-74
2022/12/05 00:42:43;;;;;;;25.70;18.45;;;;;;;;;;5002017;28;20126;-75
2022/12/05 00:45:09;;;;;;;24.00;16.23;;;;;;;;;;5007031;28;20026;-74
2022/12/05 00:47:36;;;;;;;26.27;17.40;;;;;;;;;;4995083;28;20401;-74
2022/12/05 00:50:02;;;;;;;24.10;17.45;;;;;;;;;;5008680;28;20093;-75
2022/12/05 00:52:28;;;;;;;25.88;16.40;;;;;;;;;;4999839;28;20018;-75
2022/12/05 00:54:54;;;;;;;24.63;16.48;;;;;;;;;;5001092;28;20057;-75
2022/12/05 00:57:20;;;;;;;21.83;15.82;;;;;;;;;;5006415;28;20061;-74
2022/12/05 00:59:46;;;;;;;23.17;17.20;;;;;;;;;;4995819;28;20106;-74
2022/12/05 01:02:12;;;;;;;23.30;16.50;;;;;;;;;;5005223;28;20449;-73
2022/12/05 01:04:39;;;;;;;27.20;19.13;;;;;;;;;;5002238;28;20441;-75
2022/12/05 01:07:07;;;;;;;23.38;16.40;;;;;;;;;;4998032;28;20022;-74
2022/12/05 01:09:33;;;;;;;24.85;17.45;;;;;;;;;;5008752;28;20032;-76
2022/12/05 01:11:59;;;;;;;25.80;18.30;;;;;;;;;;4995408;28;20488;-76
2022/12/05 01:14:25;;;;;;;24.95;17.52;;;;;;;;;;5004751;28;20018;-75
2022/12/05 01:16:53;;;;;;;24.45;17.67;;;;;;;;;;5003395;28;20038;-74
2022/12/05 01:19:24;;;;;;;25.38;17.73;;;;;;;;;;4997645;28;20033;-75
2022/12/05 01:21:50;;;;;;;25.23;16.95;;;;;;;;;;5007850;28;20041;-76
2022/12/05 01:24:17;;;;;;;26.13;17.42;;;;;;;;;;4997905;28;20022;-75
2022/12/05 01:26:43;;;;;;;26.50;18.30;;;;;;;;;;5002714;28;20349;-74
2022/12/05 01:29:09;;;;;;;24.33;17.17;;;;;;;;;;5005644;28;20030;-74
2022/12/05 01:31:36;;;;;;;27.75;18.48;;;;;;;;;;4996172;28;20054;-75
2022/12/05 01:34:03;;;;;;;26.58;17.77;;;;;;;;;;5007069;28;20295;-74
2022/12/05 01:36:29;;;;;;;24.40;17.30;;;;;;;;;;4984305;28;20481;-72
2022/12/05 01:38:56;;;;;;;25.17;18.50;;;;;;;;;;5002057;28;20044;-74
2022/12/05 01:41:24;;;;;;;30.40;18.15;;;;;;;;;;4995569;28;20073;-75
2022/12/05 01:43:53;;;;;;;27.83;18.13;;;;;;;;;;5008919;28;20022;-73
2022/12/05 01:46:20;;;;;;;27.27;17.92;;;;;;;;;;4998977;28;20072;-74
2022/12/05 01:48:56;;;;;;;28.08;19.00;;;;;;;;;;5001829;28;20026;-74
2022/12/05 01:51:22;;;;;;;25.50;18.25;;;;;;;;;;5006197;28;20041;-72
2022/12/05 01:53:48;;;;;;;28.33;17.80;;;;;;;;;;4995580;28;20027;-74
2022/12/05 01:56:14;;;;;;;24.83;17.58;;;;;;;;;;5010316;28;20065;-73
2022/12/05 01:58:42;;;;;;;28.63;18.90;;;;;;;;;;5011935;28;20053;-75
2022/12/05 02:01:08;;;;;;;27.00;17.27;;;;;;;;;;4997424;28;20485;-75
2022/12/05 02:03:35;;;;;;;27.60;18.05;;;;;;;;;;5008375;28;20395;-75
2022/12/05 02:06:01;;;;;;;27.08;18.55;;;;;;;;;;4996727;28;20022;-75
2022/12/05 02:08:28;;;;;;;26.80;18.25;;;;;;;;;;5013777;28;20019;-77
2022/12/05 02:10:57;;;;;;;25.90;17.75;;;;;;;;;;5020772;28;20030;-76
2022/12/05 02:13:30;;;;;;;27.10;17.75;;;;;;;;;;5012355;28;20030;-75
2022/12/05 02:15:56;;;;;;;27.63;18.52;;;;;;;;;;5036414;28;20107;-77
2022/12/05 02:18:37;;;;;;;26.60;16.30;;;;;;;;;;5025106;28;20084;-74
2022/12/05 02:21:09;;;;;;;27.73;18.00;;;;;;;;;;5007583;28;20038;-74
2022/12/05 02:23:35;;;;;;;25.65;19.17;;;;;;;;;;4996042;28;20030;-74
2022/12/05 02:26:10;;;;;;;24.55;16.55;;;;;;;;;;5011824;28;20022;-72
2022/12/05 02:28:36;;;;;;;26.70;18.38;;;;;;;;;;5004716;28;20050;-75
2022/12/05 02:31:07;;;;;;;26.58;17.65;;;;;;;;;;5003255;28;20564;-75
2022/12/05 02:33:33;;;;;;;;;;;;;;;;;;5012550;28;20029;-73
2022/12/05 02:36:18;;;;;;;25.40;15.73;;;;;;;;;;4987698;28;19906;-75
2022/12/05 02:38:47;;;;;;;28.60;17.75;;;;;;;;;;5005431;28;20369;-76
2022/12/05 02:41:16;;;;;;;27.33;18.13;;;;;;;;;;5001303;28;20026;-75
2022/12/05 02:43:54;;;;;;;23.85;16.50;;;;;;;;;;5011756;28;20080;-77
2022/12/05 02:46:24;;;;;;;25.30;16.30;;;;;;;;;;5001132;28;20366;-77
2022/12/05 02:48:54;;;;;;;22.67;15.50;;;;;;;;;;5004109;28;20467;-74
2022/12/05 02:51:21;;;;;;;24.33;15.75;;;;;;;;;;5010191;28;20032;-74
2022/12/05 02:53:48;;;;;;;20.65;14.02;;;;;;;;;;4998568;28;20061;-75
2022/12/05 02:56:15;;;;;;;21.70;14.90;;;;;;;;;;5008885;28;20023;-76
2022/12/05 02:58:44;;;;;;;21.70;14.50;;;;;;;;;;5004354;28;20412;-75
2022/12/05 03:01:11;;;;;;;23.08;14.82;;;;;;;;;;5014848;28;20435;-73
2022/12/05 03:03:37;;;;;;;20.45;13.75;;;;;;;;;;4998396;28;20030;-76
2022/12/05 03:06:08;;;;;;;22.13;14.25;;;;;;;;;;5009033;28;20014;-76
2022/12/05 03:08:44;;;;;;;20.27;13.73;;;;;;;;;;5004094;28;20022;-76
2022/12/05 03:11:10;;;;;;;21.25;14.38;;;;;;;;;;5014801;28;20484;-73
2022/12/05 03:13:41;;;;;;;18.92;13.25;;;;;;;;;;4998250;28;20034;-74
2022/12/05 03:16:12;;;;;;;19.63;14.55;;;;;;;;;;5009474;28;20106;-75
2022/12/05 03:18:39;;;;;;;19.80;13.35;;;;;;;;;;5003825;28;20385;-74
2022/12/05 03:21:24;;;;;;;19.33;13.20;;;;;;;;;;5003852;28;20378;-75
2022/12/05 03:23:52;;;;;;;19.00;12.93;;;;;;;;;;5013066;28;20022;-73
2022/12/05 03:26:24;;;;;;;19.23;13.48;;;;;;;;;;5000706;28;20022;-74
2022/12/05 03:29:08;;;;;;;19.73;13.70;;;;;;;;;;5004979;28;20097;-74
2022/12/05 03:31:44;;;;;;;19.67;13.38;;;;;;;;;;5010762;28;20041;-74
2022/12/05 03:34:14;;;;;;;19.85;13.02;;;;;;;;;;5000016;28;20026;-74
2022/12/05 03:36:43;;;;;;;18.92;13.50;;;;;;;;;;5005845;28;20528;-74
2022/12/05 03:39:18;;;;;;;18.25;12.95;;;;;;;;;;5001392;28;20026;-72
2022/12/05 03:41:53;;;;;;;19.58;13.70;;;;;;;;;;5011312;28;20392;-73
2022/12/05 03:44:21;;;;;;;17.60;13.07;;;;;;;;;;5002543;28;20543;-72
2022/12/05 03:46:51;;;;;;;18.95;13.05;;;;;;;;;;5011701;28;20093;-72
2022/12/05 03:49:23;;;;;;;19.77;13.98;;;;;;;;;;5020538;28;20022;-74
2022/12/05 03:52:09;;;;;;;18.95;13.35;;;;;;;;;;5024201;28;20500;-73
2022/12/05 03:54:38;;;;;;;18.63;12.93;;;;;;;;;;4995765;28;20038;-74
2022/12/05 03:57:08;;;;;;;17.25;12.00;;;;;;;;;;5012542;28;20041;-75
2022/12/05 03:59:40;;;;;;;18.67;13.40;;;;;;;;;;5009610;28;20363;-72
2022/12/05 04:02:11;;;;;;;21.20;13.85;;;;;;;;;;5008929;28;20500;-73
2022/12/05 04:04:39;;;;;;;21.48;13.13;;;;;;;;;;5003211;28;20100;-73
2022/12/05 04:07:06;;;;;;;19.85;13.27;;;;;;;;;;5000996;28;20022;-75
2022/12/05 04:09:38;;;;;;;18.45;13.10;;;;;;;;;;5010104;28;20057;-73
2022/12/05 04:12:07;;;;;;;19.75;13.27;;;;;;;;;;4998456;28;20480;-75
2022/12/05 04:14:42;;;;;;;19.45;13.50;;;;;;;;;;5003975;28;20026;-74
2022/12/05 04:17:17;;;;;;;19.90;13.10;;;;;;;;;;5006771;28;20030;-73
2022/12/05 04:22:44;;;;;;;21.40;13.18;;;;;;;;;;5006058;28;20391;-73
2022/12/05 04:28:12;;;;;;;18.17;13.07;;;;;;;;;;4981479;28;20116;-76
2022/12/05 04:30:50;;;;;;;16.23;11.63;;;;;;;;;;5004657;28;20030;-74
2022/12/05 04:33:30;;;;;;;17.20;11.90;;;;;;;;;;5008108;28;20109;-74
2022/12/05 04:36:07;;;;;;;21.98;13.57;;;;;;;;;;5002907;28;20067;-74
2022/12/05 04:38:53;;;;;;;18.65;12.77;;;;;;;;;;5004290;28;20038;-74
2022/12/05 04:41:33;;;;;;;17.33;12.52;;;;;;;;;;5008054;28;20558;-73
2022/12/05 04:44:03;;;;;;;17.67;12.95;;;;;;;;;;4981810;28;20136;-76
2022/12/05 04:46:29;;;;;;;18.50;12.63;;;;;;;;;;5005028;28;20027;-74
2022/12/05 04:48:58;;;;;;;19.00;12.57;;;;;;;;;;4991987;28;20019;-74
2022/12/05 04:51:26;;;;;;;17.17;12.45;;;;;;;;;;5008774;28;20022;-74
2022/12/05 04:53:55;;;;;;;17.77;12.27;;;;;;;;;;4996462;28;20029;-75
2022/12/05 04:56:22;;;;;;;19.90;13.20;;;;;;;;;;5005752;28;20403;-70
2022/12/05 04:58:48;;;;;;;17.33;12.45;;;;;;;;;;5003330;28;20369;-73
2022/12/05 05:01:20;;;;;;;17.67;11.82;;;;;;;;;;4998651;28;20022;-74
2022/12/05 05:03:56;;;;;;;17.33;12.60;;;;;;;;;;5007866;28;20069;-73
2022/12/05 05:06:22;;;;;;;16.05;12.05;;;;;;;;;;4999662;28;20018;-73
2022/12/05 05:08:49;;;;;;;17.77;12.38;;;;;;;;;;5001851;28;20026;-76
2022/12/05 05:11:23;;;;;;;18.25;12.38;;;;;;;;;;5007010;28;20431;-74
2022/12/05 05:13:49;;;;;;;17.45;12.30;;;;;;;;;;4996015;28;20022;-74
2022/12/05 05:16:19;;;;;;;16.77;11.85;;;;;;;;;;5005110;28;20054;-73
2022/12/05 05:18:48;;;;;;;18.20;11.82;;;;;;;;;;5002554;28;20120;-74
2022/12/05 05:21:19;;;;;;;17.27;11.70;;;;;;;;;;4998040;28;20038;-75
2022/12/05 05:23:46;;;;;;;17.35;12.18;;;;;;;;;;5008592;28;20101;-73
2022/12/05 05:26:12;;;;;;;17.27;12.38;;;;;;;;;;4997791;28;20079;-73
2022/12/05 05:28:38;;;;;;;16.42;11.63;;;;;;;;;;5001252;28;20026;-73
2022/12/05 05:31:04;;;;;;;21.38;13.35;;;;;;;;;;4992578;28;20037;-74
2022/12/05 05:33:30;;;;;;;18.45;12.73;;;;;;;;;;4992847;28;20022;-73
2022/12/05 05:35:56;;;;;;;19.67;13.07;;;;;;;;;;4986798;28;20030;-74
2022/12/05 05:38:22;;;;;;;15.50;11.18;;;;;;;;;;5011876;28;20501;-74
2022/12/05 05:40:48;;;;;;;17.52;12.32;;;;;;;;;;5001372;28;20082;-74
2022/12/05 05:43:14;;;;;;;17.00;11.63;;;;;;;;;;5006308;28;20022;-74
2022/12/05 05:45:40;;;;;;;16.63;12.07;;;;;;;;;;4994754;28;20031;-75
2022/12/05 05:48:06;;;;;;;16.80;11.75;;;;;;;;;;5006780;28;20026;-74
2022/12/05 05:50:32;;;;;;;18.40;12.70;;;;;;;;;;5001216;28;20440;-74
2022/12/05 05:52:58;;;;;;;15.27;11.52;;;;;;;;;;5000170;28;20113;-73
2022/12/05 05:55:24;;;;;;;16.30;11.82;;;;;;;;;;5007803;28;20030;-74
2022/12/05 05:57:50;;;;;;;17.35;12.90;;;;;;;;;;4995145;28;20080;-70
2022/12/05 06:00:17;;;;;;;19.42;13.00;;;;;;;;;;5005866;28;20523;-73
2022/12/05 06:02:43;;;;;;;17.70;12.73;;;;;;;;;;5002169;28;20113;-72
2022/12/05 06:05:09;;;;;;;20.02;13.40;;;;;;;;;;4998929;28;20018;-74
2022/12/05 06:07:35;;;;;;;19.25;13.05;;;;;;;;;;5008072;28;20109;-73
2022/12/05 06:10:01;;;;;;;17.67;12.63;;;;;;;;;;5009154;28;20082;-74
2022/12/05 06:12:27;;;;;;;19.95;14.07;;;;;;;;;;5002820;28;20377;-73
2022/12/05 06:14:53;;;;;;;17.83;12.10;;;;;;;;;;5001560;28;20145;-73
2022/12/05 06:17:19;;;;;;;18.63;12.65;;;;;;;;;;5007825;28;20037;-75
2022/12/05 06:19:45;;;;;;;17.98;12.57;;;;;;;;;;4994318;28;20052;-73
2022/12/05 06:22:11;;;;;;;17.27;12.35;;;;;;;;;;5006178;28;20030;-74
2022/12/05 06:24:37;;;;;;;18.55;12.88;;;;;;;;;;4999896;28;20018;-74
2022/12/05 06:27:03;;;;;;;19.58;13.52;;;;;;;;;;5011567;28;20026;-73
2022/12/05 06:29:33;;;;;;;20.25;14.73;;;;;;;;;;4995657;28;20117;-74
2022/12/05 06:31:59;;;;;;;19.88;13.38;;;;;;;;;;4980105;28;20032;-74
2022/12/05 06:34:25;;;;;;;19.02;13.25;;;;;;;;;;5003196;28;20027;-72
2022/12/05 06:36:53;;;;;;;18.90;12.30;;;;;;;;;;4988226;28;20030;-76
2022/12/05 06:39:20;;;;;;;17.75;13.30;;;;;;;;;;4984012;28;20031;-76
2022/12/05 06:41:48;;;;;;;16.02;12.02;;;;;;;;;;4978780;28;20023;-75
2022/12/05 06:44:14;;;;;;;18.10;12.90;;;;;;;;;;4972750;28;20062;-79
2022/12/05 06:46:41;;;;;;;20.77;12.60;;;;;;;;;;4993791;28;20026;-78
2022/12/05 06:49:10;;;;;;;18.52;12.68;;;;;;;;;;5011749;28;20026;-79
2022/12/05 06:51:36;;;;;;;14.73;11.63;;;;;;;;;;5010687;28;20034;-75
2022/12/05 06:54:02;;;;;;;15.68;11.88;;;;;;;;;;4990346;28;20073;-74
2022/12/05 06:56:28;;;;;;;18.55;12.20;;;;;;;;;;4996934;28;20053;-73
2022/12/05 06:58:55;;;;;;;18.13;11.80;;;;;;;;;;5002252;28;20037;-74
2022/12/05 07:01:40;;;;;;;15.27;11.73;;;;;;;;;;5006164;28;20516;-73
2022/12/05 07:04:23;;;;;;;17.33;11.93;;;;;;;;;;4997785;28;20444;-74
2022/12/05 07:06:49;;;;;;;16.05;11.85;;;;;;;;;;5006518;28;20022;-73
2022/12/05 07:09:16;;;;;;;15.70;11.82;;;;;;;;;;5005375;28;20032;-74
2022/12/05 07:11:42;;;;;;;17.65;12.48;;;;;;;;;;4990443;28;20101;-74
2022/12/05 07:14:11;;;;;;;16.52;11.95;;;;;;;;;;4995848;28;20117;-75
2022/12/05 07:16:37;;;;;;;16.13;12.40;;;;;;;;;;5008407;28;20089;-78
2022/12/05 07:19:03;;;;;;;17.08;12.25;;;;;;;;;;5004308;28;20026;-76
2022/12/05 07:21:29;;;;;;;18.25;11.73;;;;;;;;;;5003544;28;20030;-78
2022/12/05 07:23:55;;;;;;;14.45;11.60;;;;;;;;;;5035528;28;20018;-80
2022/12/05 07:26:24;;;;;;;16.45;11.52;;;;;;;;;;5021254;28;20121;-76
2022/12/05 07:28:51;;;;;;;15.50;11.13;;;;;;;;;;5029806;28;20031;-74
2022/12/05 07:31:21;;;;;;;18.30;13.10;;;;;;;;;;5005639;28;20579;-74
2022/12/05 07:33:50;;;;;;;18.15;12.02;;;;;;;;;;4996367;28;20489;-74
2022/12/05 07:36:22;;;;;;;18.05;12.10;;;;;;;;;;5008998;28;20109;-75
2022/12/05 07:38:48;;;;;;;15.95;11.75;;;;;;;;;;5002721;28;20034;-75
2022/12/05 07:41:35;;;;;;;15.73;11.98;;;;;;;;;;5003727;28;20030;-75
2022/12/05 07:44:01;;;;;;;17.90;11.90;;;;;;;;;;4996376;28;20037;-75
2022/12/05 07:46:29;;;;;;;15.38;11.68;;;;;;;;;;4999704;28;20046;-75
2022/12/05 07:48:58;;;;;;;17.73;12.02;;;;;;;;;;5003151;28;20029;-77
2022/12/05 07:51:27;;;;;;;18.08;12.45;;;;;;;;;;5001371;28;20030;-75
2022/12/05 07:53:55;;;;;;;16.98;10.88;;;;;;;;;;4994993;28;20046;-77
2022/12/05 07:56:22;;;;;;;21.27;13.38;;;;;;;;;;5014101;28;20120;-75
2022/12/05 07:58:54;;;;;;;16.80;12.07;;;;;;;;;;5014216;28;20388;-74
2022/12/05 08:01:21;;;;;;;17.20;11.85;;;;;;;;;;5002025;28;20734;-77
2022/12/05 08:04:05;;;;;;;15.10;10.93;;;;;;;;;;5009906;28;20041;-77
2022/12/05 08:06:35;;;;;;;14.52;10.90;;;;;;;;;;4985734;28;20030;-78
2022/12/05 08:09:19;;;;;;;14.77;11.13;;;;;;;;;;5004439;28;20026;-79
2022/12/05 08:11:53;;;;;;;15.25;11.52;;;;;;;;;;5009217;28;20021;-76
2022/12/05 08:14:22;;;;;;;17.73;12.18;;;;;;;;;;4980220;28;20594;-79
2022/12/05 08:16:51;;;;;;;17.27;13.25;;;;;;;;;;5012546;28;20029;-78
2022/12/05 08:19:20;;;;;;;16.55;12.65;;;;;;;;;;5000919;28;20115;-78
2022/12/05 08:21:51;;;;;;;15.50;12.02;;;;;;;;;;5008007;28;20488;-78
2022/12/05 08:24:24;;;;;;;20.48;13.50;;;;;;;;;;4994089;28;20480;-77
2022/12/05 08:27:01;;;;;;;25.73;18.00;;;;;;;;;;5000086;28;20034;-77
2022/12/05 08:29:48;;;;;;;31.70;19.42;;;;;;;;;;4999350;28;20033;-78
2022/12/05 08:35:37;;;;;;;25.23;17.40;;;;;;;;;;5004865;28;20034;-77
2022/12/05 08:38:03;;;;;;;27.42;17.67;;;;;;;;;;4996729;28;20030;-75
2022/12/05 08:44:04;;;;;;;;;;;;;;;;;;;;;
2022/12/05 08:46:51;;;;;;;26.70;17.48;;;;;;;;;;5000522;28;20038;-77
2022/12/05 08:49:18;;;;;;;22.25;15.95;;;;;;;;;;5000111;28;20080;-76
2022/12/05 08:52:02;;;;;;;22.10;15.63;;;;;;;;;;5007306;28;20029;-78
2022/12/05 08:54:28;;;;;;;21.45;15.82;;;;;;;;;;4983401;28;20479;-79
2022/12/05 08:57:07;;;;;;;22.38;17.02;;;;;;;;;;5004325;28;20068;-79
2022/12/05 08:59:34;;;;;;;23.67;17.60;;;;;;;;;;5006380;28;20408;-75
2022/12/05 09:02:00;;;;;;;26.95;18.23;;;;;;;;;;5011451;28;20570;-76
2022/12/05 09:04:29;;;;;;;21.73;16.52;;;;;;;;;;4994003;28;20030;-75
2022/12/05 09:06:55;;;;;;;54.78;20.70;;;;;;;;;;5000177;28;20018;-75
2022/12/05 09:09:24;;;;;;;21.45;15.57;;;;;;;;;;5000665;28;20033;-76
2022/12/05 09:11:59;;;;;;;27.63;17.85;;;;;;;;;;4991484;28;20054;-76
2022/12/05 09:14:32;;;;;;;27.80;17.10;;;;;;;;;;4987138;28;20026;-75
2022/12/05 09:17:07;;;;;;;22.92;16.13;;;;;;;;;;5011041;22;20038;-74
2022/12/05 09:19:33;;;;;;;24.92;15.93;;;;;;;;;;5004931;28;20041;-75
2022/12/05 09:22:07;;;;;;;24.48;15.75;;;;;;;;;;4994437;28;20636;-75
2022/12/05 09:25:05;;;;;;;20.42;15.48;;;;;;;;;;5011690;28;20030;-75
2022/12/05 09:27:46;;;;;;;22.10;14.93;;;;;;;;;;4998583;28;20421;-75
2022/12/05 09:30:22;;;;;;;19.30;14.27;;;;;;;;;;4993549;28;20495;-75
2022/12/05 09:32:51;;;;;;;19.80;13.77;;;;;;;;;;4993149;28;20038;-75
2022/12/05 09:35:31;;;;;;;20.27;13.80;;;;;;;;;;4991991;28;20033;-76
2022/12/05 09:38:00;;;;;;;21.00;14.55;;;;;;;;;;5008953;28;20042;-76
2022/12/05 09:40:29;;;;;;;18.75;13.88;;;;;;;;;;5007070;28;20488;-76
2022/12/05 09:43:23;;;;;;;18.58;13.80;;;;;;;;;;4992766;28;20027;-76
2022/12/05 09:48:43;;;;;;;20.77;14.80;;;;;;;;;;5043200;23;20112;-76
2022/12/05 09:51:13;;;;;;;24.50;14.93;;;;;;;;;;5012966;28;20271;-76
2022/12/05 09:53:45;;;;;;;23.25;15.75;;;;;;;;;;4980482;28;20101;-76
2022/12/05 09:56:34;;;;;;;21.67;14.05;;;;;;;;;;4976492;28;20035;-76
2022/12/05 09:59:19;;;;;;;19.90;13.20;;;;;;;;;;4993943;28;20506;-74
2022/12/05 10:01:57;;;;;;;21.05;14.73;;;;;;;;;;5013510;28;20030;-76
2022/12/05 10:04:29;;;;;;;21.15;13.45;;;;;;;;;;4975050;28;20026;-75
2022/12/05 10:07:26;;;;;;;20.38;14.68;;;;;;;;;;4982548;28;20116;-76
2022/12/05 10:10:18;;;;;;;17.83;12.80;;;;;;;;;;4994860;28;20421;-76
2022/12/05 10:12:57;;;;;;;19.63;14.02;;;;;;;;;;4970356;28;20117;-76
2022/12/05 10:15:43;;;;;;;21.30;12.93;;;;;;;;;;5003910;28;20026;-73
2022/12/05 10:18:31;;;;;;;20.02;13.43;;;;;;;;;;4986816;28;20053;-76
2022/12/05 10:21:00;;;;;;;18.35;13.27;;;;;;;;;;5011628;28;20441;-77
2022/12/05 10:23:29;;;;;;;18.23;12.88;;;;;;;;;;4994317;28;20025;-76
2022/12/05 10:25:59;;;;;;;18.77;13.07;;;;;;;;;;4993982;28;20080;-77
2022/12/05 10:28:35;;;;;;;18.55;12.77;;;;;;;;;;4993432;28;20480;-77
2022/12/05 10:31:10;;;;;;;18.80;13.38;;;;;;;;;;5011905;28;20493;-77
2022/12/05 10:33:44;;;;;;;16.33;12.35;;;;;;;;;;5011676;28;20018;-76
2022/12/05 10:36:14;;;;;;;17.17;11.70;;;;;;;;;;5014982;28;20423;-76
2022/12/05 10:38:41;;;;;;;16.23;12.10;;;;;;;;;;5014755;28;20038;-76
2022/12/05 10:41:12;;;;;;;17.77;13.65;;;;;;;;;;5015151;28;20026;-77
2022/12/05 10:43:40;;;;;;;19.67;13.65;;;;;;;;;;4995337;28;20100;-77
2022/12/05 10:46:11;;;;;;;19.02;12.98;;;;;;;;;;4997444;28;20098;-75
2022/12/05 10:48:45;;;;;;;;;;;;;;;;;;5015430;28;20083;-76
2022/12/05 10:51:20;;;;;;;19.63;13.68;;;;;;;;;;4997562;28;20000;-75
2022/12/05 10:57:40;;;;;;;17.92;12.60;;;;;;;;;;4995308;28;20571;-76
2022/12/05 11:00:24;;;;;;;19.38;14.23;;;;;;;;;;4965827;28;20042;-75
2022/12/05 11:02:58;;;;;;;19.90;13.40;;;;;;;;;;5014869;28;20028;-78
2022/12/05 11:05:59;;;;;;;16.95;11.43;;;;;;;;;;5009848;28;20036;-75
2022/12/05 11:08:57;;;;;;;18.77;13.02;;;;;;;;;;4962804;28;20088;-76
2022/12/05 11:14:44;;;;;;;17.13;12.23;;;;;;;;;;4985357;28;20021;-77
2022/12/05 11:32:43;;;;;;;15.93;11.75;;;;;;;;;;5012337;28;20037;-75
2022/12/05 11:35:12;;;;;;;18.08;12.40;;;;;;;;;;5016036;28;20032;-75
2022/12/05 11:37:38;;;;;;;17.98;11.75;;;;;;;;;;5014578;28;20061;-78
2022/12/05 11:40:15;;;;;;;19.98;11.80;;;;;;;;;;5015932;28;20094;-78
2022/12/05 11:42:50;;;;;;;17.80;12.00;;;;;;;;;;5018951;28;20033;-73
2022/12/05 11:45:26;;;;;;;16.30;11.45;;;;;;;;;;5020786;28;20229;-76
2022/12/05 11:48:00;;;;;;;14.25;11.10;;;;;;;;;;5018925;28;20122;-75
2022/12/05 11:50:45;;;;;;;11.93;8.95;;;;;;;;;;5021093;28;20045;-77
2022/12/05 11:53:25;;;;;;;13.50;8.65;;;;;;;;;;5017065;28;20030;-74
2022/12/05 11:55:59;;;;;;;13.02;9.00;;;;;;;;;;5020455;28;20025;-74
2022/12/05 11:58:25;;;;;;;14.18;8.60;;;;;;;;;;5019763;28;20036;-76
2022/12/05 12:01:17;;;;;;;13.68;8.55;;;;;;;;;;5020310;28;20030;-75
2022/12/05 12:04:06;;;;;;;12.35;7.65;;;;;;;;;;5013712;28;20022;-73
2022/12/05 12:06:58;;;;;;;10.77;8.00;;;;;;;;;;5013525;28;20030;-74
2022/12/05 12:09:54;;;;;;;10.15;7.63;;;;;;;;;;5012747;28;20057;-74
2022/12/05 12:12:44;;;;;;;9.27;8.07;;;;;;;;;;4928280;28;20158;-73
2022/12/05 12:15:17;;;;;;;9.05;7.25;;;;;;;;;;5012953;28;20034;-72
2022/12/05 12:17:53;;;;;;;10.68;7.10;;;;;;;;;;5043559;23;20053;-74
2022/12/05 12:20:35;;;;;;;14.32;9.05;;;;;;;;;;5013368;28;20090;-76
2022/12/05 12:23:01;;;;;;;11.90;8.20;;;;;;;;;;5012663;28;20030;-73
2022/12/05 12:25:27;;;;;;;14.48;8.52;;;;;;;;;;5013770;28;20404;-75
2022/12/05 12:28:05;;;;;;;9.73;8.00;;;;;;;;;;5013290;28;20097;-73
2022/12/05 12:30:49;;;;;;;9.23;7.35;;;;;;;;;;5014613;28;20109;-75
2022/12/05 12:33:38;;;;;;;10.82;7.45;;;;;;;;;;5012066;28;20035;-74
2022/12/05 12:36:07;;;;;;;10.15;7.60;;;;;;;;;;5013653;28;20109;-75
2022/12/05 12:38:38;;;;;;;10.23;7.55;;;;;;;;;;5011604;28;20041;-74
2022/12/05 12:41:32;;;;;;;10.75;7.85;;;;;;;;;;5012439;28;20462;-73
2022/12/05 12:44:17;;;;;;;9.10;7.20;;;;;;;;;;5012063;28;20480;-77
2022/12/05 12:46:57;;;;;;;14.77;9.00;;;;;;;;;;5013142;28;20029;-75
2022/12/05 12:49:26;;;;;;;11.40;8.00;;;;;;;;;;5013324;28;20029;-74
2022/12/05 12:51:53;;;;;;;10.88;7.22;;;;;;;;;;5012404;28;20034;-75
2022/12/05 12:54:35;;;;;;;9.65;7.00;;;;;;;;;;5015062;28;20511;-77
2022/12/05 12:57:04;;;;;;;10.63;7.28;;;;;;;;;;5033780;28;20084;-79
2022/12/05 12:59:30;;;;;;;9.68;7.15;;;;;;;;;;5034700;28;20033;-78
2022/12/05 13:02:04;;;;;;;10.98;8.25;;;;;;;;;;5034803;28;20076;-76
2022/12/05 13:07:32;;;;;;;9.80;7.50;;;;;;;;;;5014018;28;20042;-74
2022/12/05 13:10:02;;;;;;;11.52;8.48;;;;;;;;;;5013253;28;20029;-73
2022/12/05 13:12:32;;;;;;;9.27;6.65;;;;;;;;;;5013039;28;20088;-73
2022/12/05 13:15:01;;;;;;;10.73;7.47;;;;;;;;;;5012056;28;20463;-74
2022/12/05 13:17:28;;;;;;;8.70;6.82;;;;;;;;;;5011368;28;20100;-78
2022/12/05 13:19:56;;;;;;;12.55;8.18;;;;;;;;;;5013054;28;20080;-74
2022/12/05 13:22:26;;;;;;;11.73;7.93;;;;;;;;;;5011811;28;20022;-74
2022/12/05 13:24:53;;;;;;;12.07;7.73;;;;;;;;;;5013352;28;20044;-74
2022/12/05 13:27:21;;;;;;;13.70;7.97;;;;;;;;;;5011469;28;20026;-75
2022/12/05 13:29:56;;;;;;;13.25;7.93;;;;;;;;;;5012626;28;20033;-73
2022/12/05 13:32:35;;;;;;;12.55;8.77;;;;;;;;;;5011458;28;20025;-74
2022/12/05 13:35:10;;;;;;;12.43;8.65;;;;;;;;;;5011744;28;20053;-74
2022/12/05 13:43:28;;;;;;;12.35;9.15;;;;;;;;;;5012521;28;20065;-74
2022/12/05 13:46:00;;;;;;;15.40;9.60;;;;;;;;;;5012300;28;20022;-75
2022/12/05 13:48:28;;;;;;;12.60;8.85;;;;;;;;;;5009895;28;20062;-74
2022/12/05 13:50:56;;;;;;;13.82;9.27;;;;;;;;;;5012070;28;20130;-73
2022/12/05 13:53:36;;;;;;;14.55;9.52;;;;;;;;;;5010089;28;20037;-76
2022/12/05 13:56:05;;;;;;;11.63;8.38;;;;;;;;;;5012201;28;20610;-73
2022/12/05 13:58:31;;;;;;;11.65;8.35;;;;;;;;;;5012254;28;20068;-74
2022/12/05 14:01:15;;;;;;;9.65;7.35;;;;;;;;;;5010870;28;20495;-73
2022/12/05 14:03:50;;;;;;;10.10;6.53;;;;;;;;;;5012084;28;20034;-75
2022/12/05 14:06:36;;;;;;;9.75;6.10;;;;;;;;;;5028209;22;20426;-74
2022/12/05 14:09:03;;;;;;;7.53;5.90;;;;;;;;;;4956819;28;20035;-74
2022/12/05 14:11:29;;;;;;;8.02;5.78;;;;;;;;;;4960177;28;20023;-74
2022/12/05 14:13:55;;;;;;;9.40;6.03;;;;;;;;;;4959391;28;20021;-75
2022/12/05 14:16:21;;;;;;;8.00;5.95;;;;;;;;;;4976981;28;20428;-74
2022/12/05 14:18:50;;;;;;;8.57;6.35;;;;;;;;;;4977335;28;20528;-74
2022/12/05 14:21:46;;;;;;;11.20;6.38;;;;;;;;;;4960735;28;20038;-75
2022/12/05 14:24:26;;;;;;;8.02;5.82;;;;;;;;;;4943205;28;20580;-74
2022/12/05 14:27:15;;;;;;;10.25;7.55;;;;;;;;;;4976022;28;20031;-77
2022/12/05 14:30:00;;;;;;;12.75;7.65;;;;;;;;;;4976746;28;20095;-78
2022/12/05 14:32:34;;;;;;;9.18;6.50;;;;;;;;;;4959000;28;20489;-74
2022/12/05 14:35:10;;;;;;;9.40;6.25;;;;;;;;;;4959333;28;20027;-74
2022/12/05 14:37:38;;;;;;;9.35;6.55;;;;;;;;;;4959081;28;20124;-77
2022/12/05 14:40:17;;;;;;;9.65;7.18;;;;;;;;;;4976737;28;20019;-74
2022/12/05 14:42:43;;;;;;;11.88;6.82;;;;;;;;;;4975668;28;20099;-74
2022/12/05 14:45:27;;;;;;;9.15;7.28;;;;;;;;;;4956078;28;20490;-73
2022/12/05 14:47:55;;;;;;;11.52;7.22;;;;;;;;;;4975176;28;20109;-73
2022/12/05 14:50:40;;;;;;;9.13;7.18;;;;;;;;;;4976431;28;20026;-76
2022/12/05 14:53:15;;;;;;;10.68;8.10;;;;;;;;;;4976466;28;20065;-75
2022/12/05 14:55:44;;;;;;;13.35;8.63;;;;;;;;;;4976249;28;20082;-75
2022/12/05 14:58:17;;;;;;;11.35;8.30;;;;;;;;;;4977989;28;20058;-72
2022/12/05 15:00:44;;;;;;;14.60;9.73;;;;;;;;;;4976617;28;20438;-75
2022/12/05 15:03:18;;;;;;;12.73;8.88;;;;;;;;;;4976301;28;20037;-75
2022/12/05 15:05:46;;;;;;;11.20;8.43;;;;;;;;;;4958428;28;20050;-74
2022/12/05 15:08:16;;;;;;;12.48;8.25;;;;;;;;;;4960028;28;20031;-75
2022/12/05 15:10:45;;;;;;;12.57;8.40;;;;;;;;;;4975952;28;20033;-73
2022/12/05 15:13:43;;;;;;;15.20;9.25;;;;;;;;;;4975528;28;20030;-75
2022/12/05 15:16:15;;;;;;;13.85;9.43;;;;;;;;;;4967210;28;20485;-75
2022/12/05 15:18:44;;;;;;;12.73;9.23;;;;;;;;;;4967556;28;20430;-74
2022/12/05 15:21:23;;;;;;;14.10;9.13;;;;;;;;;;4955382;28;20047;-75
2022/12/05 15:24:05;;;;;;;15.40;9.43;;;;;;;;;;4980485;28;20058;-76
2022/12/05 15:26:42;;;;;;;14.07;9.80;;;;;;;;;;4975747;28;20563;-75
2022/12/05 15:29:08;;;;;;;13.45;9.30;;;;;;;;;;4965908;28;20402;-76
2022/12/05 15:31:37;;;;;;;13.27;8.95;;;;;;;;;;4968939;28;20062;-74
2022/12/05 15:34:09;;;;;;;13.52;9.52;;;;;;;;;;4973954;28;20034;-75
2022/12/05 15:36:43;;;;;;;12.82;9.27;;;;;;;;;;4951107;28;20027;-74